sensor_id;sensor_type;location;lat;lon;timestamp;P1;durP1;ratioP1;P2;durP2;ratioP2
15474;SDS011;7839;50.462;9.678;2023-02-21T00:00:27;6.70;;;5.63;;
15474;SDS011;7839;50.462;9.678;2023-02-21T00:07:25;7.77;;;5.60;;
15474;SDS011;7839;50.462;9.678;2023-02-21T00:14:25;6.00;;;5.40;;
15474;SDS011;7839;50.462;9.678;2023-02-21T00:21:25;6.30;;;4.90;;
15474;SDS011;7839;50.462;9.678;2023-02-21T00:28:25;5.53;;;4.90;;
15474;SDS011;7839;50.462;9.678;2023-02-21T00:35:24;5.77;;;5.27;;
15474;SDS011;7839;50.462;9.678;2023-02-21T00:42:23;7.07;;;5.40;;
15474;SDS011;7839;50.462;9.678;2023-02-21T00:49:21;6.83;;;5.60;;
15474;SDS011;7839;50.462;9.678;2023-02-21T00:56:20;6.57;;;4.73;;
15474;SDS011;7839;50.462;9.678;2023-02-21T01:03:19;6.77;;;5.63;;
15474;SDS011;7839;50.462;9.678;2023-02-21T01:10:19;6.93;;;6.23;;
15474;SDS011;7839;50.462;9.678;2023-02-21T01:17:18;6.40;;;5.80;;
15474;SDS011;7839;50.462;9.678;2023-02-21T01:24:17;6.57;;;5.73;;
15474;SDS011;7839;50.462;9.678;2023-02-21T01:31:16;6.70;;;6.00;;
15474;SDS011;7839;50.462;9.678;2023-02-21T01:38:15;7.00;;;5.70;;
15474;SDS011;7839;50.462;9.678;2023-02-21T01:45:28;6.87;;;6.03;;
15474;SDS011;7839;50.462;9.678;2023-02-21T01:52:31;7.10;;;6.40;;
15474;SDS011;7839;50.462;9.678;2023-02-21T01:59:31;7.93;;;6.50;;
15474;SDS011;7839;50.462;9.678;2023-02-21T02:06:30;8.10;;;6.93;;
15474;SDS011;7839;50.462;9.678;2023-02-21T02:13:40;8.63;;;6.83;;
15474;SDS011;7839;50.462;9.678;2023-02-21T02:47:11;11.03;;;8.27;;
15474;SDS011;7839;50.462;9.678;2023-02-21T02:53:54;9.87;;;8.63;;
15474;SDS011;7839;50.462;9.678;2023-02-21T03:00:36;10.47;;;8.77;;
15474;SDS011;7839;50.462;9.678;2023-02-21T03:14:08;10.10;;;9.00;;
15474;SDS011;7839;50.462;9.678;2023-02-21T03:20:56;12.43;;;9.00;;
15474;SDS011;7839;50.462;9.678;2023-02-21T03:27:37;10.20;;;8.87;;
15474;SDS011;7839;50.462;9.678;2023-02-21T03:34:18;10.40;;;7.87;;
15474;SDS011;7839;50.462;9.678;2023-02-21T03:40:58;10.37;;;8.27;;
15474;SDS011;7839;50.462;9.678;2023-02-21T03:47:40;10.77;;;8.53;;
15474;SDS011;7839;50.462;9.678;2023-02-21T03:54:21;10.87;;;8.43;;
15474;SDS011;7839;50.462;9.678;2023-02-21T04:01:01;10.30;;;8.77;;
15474;SDS011;7839;50.462;9.678;2023-02-21T04:07:43;8.13;;;7.33;;
15474;SDS011;7839;50.462;9.678;2023-02-21T04:14:24;9.93;;;7.93;;
15474;SDS011;7839;50.462;9.678;2023-02-21T04:21:04;9.83;;;8.07;;
15474;SDS011;7839;50.462;9.678;2023-02-21T04:27:44;8.10;;;6.90;;
15474;SDS011;7839;50.462;9.678;2023-02-21T04:34:24;16.30;;;12.80;;
15474;SDS011;7839;50.462;9.678;2023-02-21T04:41:05;7.53;;;6.27;;
15474;SDS011;7839;50.462;9.678;2023-02-21T04:47:45;7.77;;;6.13;;
15474;SDS011;7839;50.462;9.678;2023-02-21T04:54:26;6.90;;;5.53;;
15474;SDS011;7839;50.462;9.678;2023-02-21T05:01:09;5.93;;;5.27;;
15474;SDS011;7839;50.462;9.678;2023-02-21T05:07:49;5.50;;;4.93;;
15474;SDS011;7839;50.462;9.678;2023-02-21T05:14:30;5.80;;;5.10;;
15474;SDS011;7839;50.462;9.678;2023-02-21T05:21:12;5.63;;;5.03;;
15474;SDS011;7839;50.462;9.678;2023-02-21T05:27:52;5.37;;;4.60;;
15474;SDS011;7839;50.462;9.678;2023-02-21T05:34:33;7.77;;;5.00;;
15474;SDS011;7839;50.462;9.678;2023-02-21T05:41:13;5.83;;;5.00;;
15474;SDS011;7839;50.462;9.678;2023-02-21T05:47:54;5.67;;;5.00;;
15474;SDS011;7839;50.462;9.678;2023-02-21T05:54:39;7.10;;;5.37;;
15474;SDS011;7839;50.462;9.678;2023-02-21T06:01:19;6.30;;;4.77;;
15474;SDS011;7839;50.462;9.678;2023-02-21T06:07:59;6.10;;;5.00;;
15474;SDS011;7839;50.462;9.678;2023-02-21T06:14:40;6.27;;;5.00;;
15474;SDS011;7839;50.462;9.678;2023-02-21T06:21:21;6.17;;;4.50;;
15474;SDS011;7839;50.462;9.678;2023-02-21T06:28:03;6.70;;;4.77;;
15474;SDS011;7839;50.462;9.678;2023-02-21T06:34:44;7.03;;;4.97;;
15474;SDS011;7839;50.462;9.678;2023-02-21T06:41:26;7.33;;;5.03;;
15474;SDS011;7839;50.462;9.678;2023-02-21T06:48:06;6.53;;;4.97;;
15474;SDS011;7839;50.462;9.678;2023-02-21T06:54:51;5.53;;;4.67;;
15474;SDS011;7839;50.462;9.678;2023-02-21T07:01:31;6.97;;;5.07;;
15474;SDS011;7839;50.462;9.678;2023-02-21T07:08:14;6.60;;;5.13;;
15474;SDS011;7839;50.462;9.678;2023-02-21T07:14:54;6.57;;;5.30;;
15474;SDS011;7839;50.462;9.678;2023-02-21T07:21:34;6.60;;;5.40;;
15474;SDS011;7839;50.462;9.678;2023-02-21T07:28:15;8.43;;;5.83;;
15474;SDS011;7839;50.462;9.678;2023-02-21T07:34:56;7.87;;;5.80;;
15474;SDS011;7839;50.462;9.678;2023-02-21T07:41:36;8.03;;;5.67;;
15474;SDS011;7839;50.462;9.678;2023-02-21T07:48:16;7.23;;;5.93;;
15474;SDS011;7839;50.462;9.678;2023-02-21T07:54:57;6.97;;;5.80;;
15474;SDS011;7839;50.462;9.678;2023-02-21T08:01:38;8.07;;;6.27;;
15474;SDS011;7839;50.462;9.678;2023-02-21T08:08:18;7.03;;;5.97;;
15474;SDS011;7839;50.462;9.678;2023-02-21T08:14:59;10.03;;;6.40;;
15474;SDS011;7839;50.462;9.678;2023-02-21T08:21:43;8.53;;;6.10;;
15474;SDS011;7839;50.462;9.678;2023-02-21T08:28:24;9.03;;;6.20;;
15474;SDS011;7839;50.462;9.678;2023-02-21T08:35:04;6.53;;;5.07;;
15474;SDS011;7839;50.462;9.678;2023-02-21T08:41:45;9.40;;;5.77;;
15474;SDS011;7839;50.462;9.678;2023-02-21T08:48:27;8.03;;;5.70;;
15474;SDS011;7839;50.462;9.678;2023-02-21T08:55:07;7.67;;;5.70;;
15474;SDS011;7839;50.462;9.678;2023-02-21T09:01:47;10.40;;;6.50;;
15474;SDS011;7839;50.462;9.678;2023-02-21T09:08:28;7.60;;;5.90;;
15474;SDS011;7839;50.462;9.678;2023-02-21T09:15:09;9.07;;;5.80;;
15474;SDS011;7839;50.462;9.678;2023-02-21T09:21:51;5.70;;;5.17;;
15474;SDS011;7839;50.462;9.678;2023-02-21T09:28:34;6.97;;;5.57;;
15474;SDS011;7839;50.462;9.678;2023-02-21T09:35:22;6.20;;;5.00;;
15474;SDS011;7839;50.462;9.678;2023-02-21T09:42:02;6.83;;;5.13;;
15474;SDS011;7839;50.462;9.678;2023-02-21T09:48:43;5.60;;;5.00;;
15474;SDS011;7839;50.462;9.678;2023-02-21T09:55:33;7.23;;;5.13;;
15474;SDS011;7839;50.462;9.678;2023-02-21T10:15:59;7.23;;;5.03;;
15474;SDS011;7839;50.462;9.678;2023-02-21T10:22:41;7.60;;;4.97;;
15474;SDS011;7839;50.462;9.678;2023-02-21T10:29:26;5.37;;;4.77;;
15474;SDS011;7839;50.462;9.678;2023-02-21T10:36:13;5.73;;;4.07;;
15474;SDS011;7839;50.462;9.678;2023-02-21T10:42:59;5.93;;;4.37;;
15474;SDS011;7839;50.462;9.678;2023-02-21T10:49:45;4.80;;;4.33;;
15474;SDS011;7839;50.462;9.678;2023-02-21T10:56:27;5.17;;;4.47;;
15474;SDS011;7839;50.462;9.678;2023-02-21T11:09:56;5.37;;;4.40;;
15474;SDS011;7839;50.462;9.678;2023-02-21T11:16:38;4.93;;;3.93;;
15474;SDS011;7839;50.462;9.678;2023-02-21T11:23:19;4.87;;;4.30;;
15474;SDS011;7839;50.462;9.678;2023-02-21T11:30:01;5.63;;;4.47;;
15474;SDS011;7839;50.462;9.678;2023-02-21T11:36:43;4.70;;;4.20;;
15474;SDS011;7839;50.462;9.678;2023-02-21T11:43:27;4.63;;;4.13;;
15474;SDS011;7839;50.462;9.678;2023-02-21T12:04:00;5.00;;;4.13;;
15474;SDS011;7839;50.462;9.678;2023-02-21T12:24:28;6.30;;;5.10;;
15474;SDS011;7839;50.462;9.678;2023-02-21T12:44:55;4.83;;;4.20;;
15474;SDS011;7839;50.462;9.678;2023-02-21T12:51:44;4.80;;;4.00;;
15474;SDS011;7839;50.462;9.678;2023-02-21T13:05:20;5.17;;;4.10;;
15474;SDS011;7839;50.462;9.678;2023-02-21T13:12:10;5.70;;;3.70;;
15474;SDS011;7839;50.462;9.678;2023-02-21T13:18:56;4.33;;;3.70;;
15474;SDS011;7839;50.462;9.678;2023-02-21T13:32:18;4.40;;;4.00;;
15474;SDS011;7839;50.462;9.678;2023-02-21T13:39:00;4.33;;;3.63;;
15474;SDS011;7839;50.462;9.678;2023-02-21T13:45:40;4.30;;;3.43;;
15474;SDS011;7839;50.462;9.678;2023-02-21T13:59:37;6.50;;;4.20;;
15474;SDS011;7839;50.462;9.678;2023-02-21T14:06:22;5.40;;;3.80;;
15474;SDS011;7839;50.462;9.678;2023-02-21T14:13:05;5.03;;;3.50;;
15474;SDS011;7839;50.462;9.678;2023-02-21T14:19:47;4.77;;;3.60;;
15474;SDS011;7839;50.462;9.678;2023-02-21T14:26:33;4.73;;;3.20;;
15474;SDS011;7839;50.462;9.678;2023-02-21T14:33:24;4.37;;;3.10;;
15474;SDS011;7839;50.462;9.678;2023-02-21T15:14:28;3.10;;;2.80;;
15474;SDS011;7839;50.462;9.678;2023-02-21T15:34:33;2.80;;;2.37;;
15474;SDS011;7839;50.462;9.678;2023-02-21T15:47:56;3.00;;;2.17;;
15474;SDS011;7839;50.462;9.678;2023-02-21T15:54:38;2.53;;;1.83;;
15474;SDS011;7839;50.462;9.678;2023-02-21T16:01:18;2.47;;;2.17;;
15474;SDS011;7839;50.462;9.678;2023-02-21T16:08:01;13.67;;;7.17;;
15474;SDS011;7839;50.462;9.678;2023-02-21T16:14:46;2.20;;;2.00;;
15474;SDS011;7839;50.462;9.678;2023-02-21T16:21:28;2.40;;;2.20;;
15474;SDS011;7839;50.462;9.678;2023-02-21T16:28:10;2.73;;;2.10;;
15474;SDS011;7839;50.462;9.678;2023-02-21T16:34:51;2.30;;;2.10;;
15474;SDS011;7839;50.462;9.678;2023-02-21T16:41:33;1.70;;;1.60;;
15474;SDS011;7839;50.462;9.678;2023-02-21T16:48:19;1.50;;;1.40;;
15474;SDS011;7839;50.462;9.678;2023-02-21T16:55:00;1.90;;;1.70;;
15474;SDS011;7839;50.462;9.678;2023-02-21T17:01:41;1.40;;;1.30;;
15474;SDS011;7839;50.462;9.678;2023-02-21T17:08:22;2.20;;;1.50;;
15474;SDS011;7839;50.462;9.678;2023-02-21T17:15:03;1.73;;;1.63;;
15474;SDS011;7839;50.462;9.678;2023-02-21T17:21:43;1.77;;;1.40;;
15474;SDS011;7839;50.462;9.678;2023-02-21T17:28:24;1.23;;;1.13;;
15474;SDS011;7839;50.462;9.678;2023-02-21T17:35:04;1.33;;;1.13;;
15474;SDS011;7839;50.462;9.678;2023-02-21T17:41:46;1.20;;;1.10;;
15474;SDS011;7839;50.462;9.678;2023-02-21T17:48:26;1.33;;;1.10;;
15474;SDS011;7839;50.462;9.678;2023-02-21T17:55:08;1.87;;;1.20;;
15474;SDS011;7839;50.462;9.678;2023-02-21T18:01:52;1.40;;;1.30;;
15474;SDS011;7839;50.462;9.678;2023-02-21T18:08:32;1.20;;;1.10;;
15474;SDS011;7839;50.462;9.678;2023-02-21T18:15:13;1.13;;;1.13;;
15474;SDS011;7839;50.462;9.678;2023-02-21T18:21:55;1.20;;;1.20;;
15474;SDS011;7839;50.462;9.678;2023-02-21T18:28:36;0.83;;;0.83;;
15474;SDS011;7839;50.462;9.678;2023-02-21T18:35:17;1.23;;;0.80;;
15474;SDS011;7839;50.462;9.678;2023-02-21T18:42:01;1.37;;;1.27;;
15474;SDS011;7839;50.462;9.678;2023-02-21T18:48:42;1.20;;;1.10;;
15474;SDS011;7839;50.462;9.678;2023-02-21T18:55:22;0.97;;;0.87;;
15474;SDS011;7839;50.462;9.678;2023-02-21T19:02:03;0.93;;;0.90;;
15474;SDS011;7839;50.462;9.678;2023-02-21T19:08:44;0.90;;;0.90;;
15474;SDS011;7839;50.462;9.678;2023-02-21T19:15:25;0.97;;;0.97;;
15474;SDS011;7839;50.462;9.678;2023-02-21T19:22:06;0.83;;;0.83;;
15474;SDS011;7839;50.462;9.678;2023-02-21T19:28:46;0.90;;;0.90;;
15474;SDS011;7839;50.462;9.678;2023-02-21T19:35:27;0.67;;;0.67;;
15474;SDS011;7839;50.462;9.678;2023-02-21T19:42:08;0.70;;;0.70;;
15474;SDS011;7839;50.462;9.678;2023-02-21T19:48:49;1.10;;;1.00;;
15474;SDS011;7839;50.462;9.678;2023-02-21T19:55:30;0.77;;;0.77;;
15474;SDS011;7839;50.462;9.678;2023-02-21T20:02:11;2.97;;;0.77;;
15474;SDS011;7839;50.462;9.678;2023-02-21T20:08:54;0.70;;;0.70;;
15474;SDS011;7839;50.462;9.678;2023-02-21T20:15:35;0.90;;;0.90;;
15474;SDS011;7839;50.462;9.678;2023-02-21T20:22:15;0.70;;;0.70;;
15474;SDS011;7839;50.462;9.678;2023-02-21T20:28:56;0.60;;;0.60;;
15474;SDS011;7839;50.462;9.678;2023-02-21T20:35:36;0.73;;;0.73;;
15474;SDS011;7839;50.462;9.678;2023-02-21T20:42:16;0.60;;;0.60;;
15474;SDS011;7839;50.462;9.678;2023-02-21T20:48:59;0.73;;;0.73;;
15474;SDS011;7839;50.462;9.678;2023-02-21T20:55:40;0.93;;;0.73;;
15474;SDS011;7839;50.462;9.678;2023-02-21T21:02:22;0.97;;;0.73;;
15474;SDS011;7839;50.462;9.678;2023-02-21T21:09:04;0.70;;;0.70;;
15474;SDS011;7839;50.462;9.678;2023-02-21T21:15:44;1.03;;;0.90;;
15474;SDS011;7839;50.462;9.678;2023-02-21T21:22:26;1.07;;;0.83;;
15474;SDS011;7839;50.462;9.678;2023-02-21T21:29:07;0.73;;;0.73;;
15474;SDS011;7839;50.462;9.678;2023-02-21T21:35:48;1.17;;;0.97;;
15474;SDS011;7839;50.462;9.678;2023-02-21T21:42:29;0.60;;;0.60;;
15474;SDS011;7839;50.462;9.678;2023-02-21T21:49:10;0.70;;;0.70;;
15474;SDS011;7839;50.462;9.678;2023-02-21T21:55:51;0.50;;;0.50;;
15474;SDS011;7839;50.462;9.678;2023-02-21T22:02:31;1.43;;;0.70;;
15474;SDS011;7839;50.462;9.678;2023-02-21T22:09:12;0.70;;;0.70;;
15474;SDS011;7839;50.462;9.678;2023-02-21T22:15:54;0.70;;;0.70;;
15474;SDS011;7839;50.462;9.678;2023-02-21T22:22:34;0.77;;;0.73;;
15474;SDS011;7839;50.462;9.678;2023-02-21T22:29:15;0.60;;;0.60;;
15474;SDS011;7839;50.462;9.678;2023-02-21T22:35:56;0.60;;;0.60;;
15474;SDS011;7839;50.462;9.678;2023-02-21T22:42:36;0.80;;;0.80;;
15474;SDS011;7839;50.462;9.678;2023-02-21T22:49:16;0.60;;;0.60;;
15474;SDS011;7839;50.462;9.678;2023-02-21T22:55:56;0.80;;;0.80;;
15474;SDS011;7839;50.462;9.678;2023-02-21T23:02:37;0.60;;;0.60;;
15474;SDS011;7839;50.462;9.678;2023-02-21T23:09:18;1.63;;;0.70;;
15474;SDS011;7839;50.462;9.678;2023-02-21T23:15:58;0.53;;;0.53;;
15474;SDS011;7839;50.462;9.678;2023-02-21T23:22:49;0.90;;;0.80;;
15474;SDS011;7839;50.462;9.678;2023-02-21T23:29:30;0.63;;;0.63;;
15474;SDS011;7839;50.462;9.678;2023-02-21T23:36:12;1.57;;;0.70;;
15474;SDS011;7839;50.462;9.678;2023-02-21T23:42:53;0.83;;;0.83;;
15474;SDS011;7839;50.462;9.678;2023-02-21T23:49:34;0.50;;;0.50;;
15474;SDS011;7839;50.462;9.678;2023-02-21T23:56:20;0.77;;;0.70;;
